Dades meteomassalio
Diari Summary for Octubre 30, 2017 Units:  English    Metric   Both
« Previous Day
Next Day »
Diari Semanal Mensual Anual Personalitzat
  Maxima: Minima: Mijana:
Temperatura: TemperatureC °F 9.4 °F 15 °F
Rosada: DewpointC °F 3.6 °F 8.3 °F
Humitat: Humidity % 48 % 65 %
Velocitat del vent: WindSpeedKMH mph 0.0 mph 20.5 mph
Racha vent: WindSpeedGustKMH mph - -
Vent:- - SSW
Pressio: PressurehPa in 1017.8 in -
Pluja: 0.0 in    
Historical Graphs
 
 
Tabular Data for Octubre 30, 2017
Time Temperature Dew Point Pressure Wind Wind Speed Wind Gust Humidity Rainfall Rate (Hourly) solar Conditions
TemperatureC °F DewpointC °F PressurehPa in Calm     Humidity % HourlyPrecipMM in SolarRadiationWatts/m^2 W/m2 Conditions
00:01 12.8 °F 8.3 °F 1022.6 in South 7.4 mph 7.4 mph 74 % 0.0 in 0.0 W/m2 CLR
00:06 12.8 °F 8.3 °F 1022.6 in South 13.0 mph 13.0 mph 74 % 0.0 in 0.0 W/m2 CLR
00:11 13.3 °F 8.6 °F 1022.6 in South 18.5 mph 18.5 mph 73 % 0.0 in 0.0 W/m2 CLR
00:16 13.3 °F 8.6 °F 1022.6 in South 25.9 mph 25.9 mph 73 % 0.0 in 0.0 W/m2 CLR
00:21 13.3 °F 8.6 °F 1022.2 in South 13.0 mph 13.0 mph 73 % 0.0 in 0.0 W/m2 CLR
00:26 13.3 °F 8.6 °F 1022.2 in South 14.8 mph 14.8 mph 73 % 0.0 in 0.0 W/m2 CLR
00:31 13.3 °F 8.6 °F 1022.2 in South 18.5 mph 18.5 mph 73 % 0.0 in 0.0 W/m2 CLR
00:36 13.3 °F 8.4 °F 1022.2 in South 18.5 mph 18.5 mph 72 % 0.0 in 0.0 W/m2 CLR
00:41 13.3 °F 8.4 °F 1022.2 in SSW 18.5 mph 18.5 mph 72 % 0.0 in 0.0 W/m2 CLR
00:46 13.3 °F 8.6 °F 1022.2 in South 25.9 mph 25.9 mph 73 % 0.0 in 0.0 W/m2 CLR
00:51 13.3 °F 8.4 °F 1022.2 in SSW 18.5 mph 18.5 mph 72 % 0.0 in 0.0 W/m2 CLR
00:56 13.3 °F 8.6 °F 1022.2 in SSW 20.4 mph 20.4 mph 73 % 0.0 in 0.0 W/m2 CLR
01:01 13.3 °F 8.6 °F 1022.2 in SSW 18.5 mph 18.5 mph 73 % 0.0 in 0.0 W/m2 CLR
01:06 13.3 °F 8.6 °F 1022.2 in South 25.9 mph 25.9 mph 73 % 0.0 in 0.0 W/m2 CLR
01:11 13.3 °F 8.6 °F 1022.2 in SSW 16.7 mph 16.7 mph 73 % 0.0 in 0.0 W/m2 CLR
01:16 13.3 °F 8.6 °F 1022.2 in South 22.2 mph 22.2 mph 73 % 0.0 in 0.0 W/m2 CLR
01:21 13.3 °F 8.6 °F 1022.2 in SSW 18.5 mph 18.5 mph 73 % 0.0 in 0.0 W/m2 CLR
01:26 13.3 °F 8.6 °F 1021.9 in South 20.4 mph 20.4 mph 73 % 0.0 in 0.0 W/m2 CLR
01:31 13.3 °F 8.6 °F 1021.9 in SSW 20.4 mph 20.4 mph 73 % 0.0 in 0.0 W/m2 CLR
01:36 12.8 °F 8.3 °F 1021.9 in South 24.1 mph 24.1 mph 74 % 0.0 in 0.0 W/m2 CLR
01:41 12.8 °F 8.1 °F 1021.9 in SW 18.5 mph 18.5 mph 73 % 0.0 in 0.0 W/m2 CLR
01:46 12.8 °F 8.1 °F 1021.9 in SSW 20.9 mph 20.9 mph 73 % 0.0 in 0.0 W/m2 CLR
01:51 12.8 °F 8.3 °F 1021.9 in South 22.2 mph 22.2 mph 74 % 0.0 in 0.0 W/m2 CLR
01:56 13.3 °F 8.8 °F 1021.9 in SSW 18.5 mph 18.5 mph 74 % 0.0 in 0.0 W/m2 CLR
02:01 13.3 °F 8.6 °F 1021.9 in SSE 25.9 mph 25.9 mph 73 % 0.0 in 0.0 W/m2 CLR
02:06 12.8 °F 8.3 °F 1021.9 in SSW 14.5 mph 14.5 mph 74 % 0.0 in 0.0 W/m2 CLR
02:07 12.8 °F 8.3 °F 1021.9 in South 14.8 mph 14.8 mph 74 % 0.0 in 0.0 W/m2 CLR
02:12 12.8 °F 8.1 °F 1021.9 in SSW 16.7 mph 16.7 mph 73 % 0.0 in 0.0 W/m2 CLR
02:17 13.3 °F 8.8 °F 1021.6 in South 20.4 mph 20.4 mph 74 % 0.0 in 0.0 W/m2 CLR
02:22 13.3 °F 8.8 °F 1021.6 in SSW 16.7 mph 16.7 mph 74 % 0.0 in 0.0 W/m2 CLR
02:27 13.3 °F 8.8 °F 1021.6 in SSW 24.1 mph 24.1 mph 74 % 0.0 in 0.0 W/m2 CLR
02:32 13.3 °F 8.8 °F 1021.6 in SW 20.4 mph 20.4 mph 74 % 0.0 in 0.0 W/m2 CLR
02:37 13.3 °F 8.8 °F 1021.6 in South 18.5 mph 18.5 mph 74 % 0.0 in 0.0 W/m2 CLR
02:42 13.3 °F 8.8 °F 1021.6 in South 13.0 mph 13.0 mph 74 % 0.0 in 0.0 W/m2 CLR
02:47 13.3 °F 8.8 °F 1021.6 in SW 24.1 mph 24.1 mph 74 % 0.0 in 0.0 W/m2 CLR
02:52 13.3 °F 8.8 °F 1021.6 in SSW 22.5 mph 22.5 mph 74 % 0.0 in 0.0 W/m2 CLR
02:57 13.3 °F 8.8 °F 1021.6 in SSW 24.1 mph 24.1 mph 74 % 0.0 in 0.0 W/m2 CLR
03:02 13.3 °F 8.8 °F 1021.2 in SSW 18.5 mph 18.5 mph 74 % 0.0 in 0.0 W/m2 CLR
03:07 13.3 °F 8.8 °F 1021.2 in SSW 22.2 mph 22.2 mph 74 % 0.0 in 0.0 W/m2 CLR
03:12 13.3 °F 8.6 °F 1021.2 in South 20.4 mph 20.4 mph 73 % 0.0 in 0.0 W/m2 CLR
03:17 13.3 °F 8.6 °F 1021.2 in South 16.7 mph 16.7 mph 73 % 0.0 in 0.0 W/m2 CLR
03:22 13.3 °F 8.6 °F 1021.2 in SSW 25.9 mph 25.9 mph 73 % 0.0 in 0.0 W/m2 CLR
03:27 13.9 °F 9.1 °F 1021.2 in SSW 16.7 mph 16.7 mph 73 % 0.0 in 0.0 W/m2 CLR
03:32 13.9 °F 9.1 °F 1021.2 in SSW 17.7 mph 17.7 mph 73 % 0.0 in 0.0 W/m2 CLR
03:37 13.3 °F 8.8 °F 1021.2 in South 27.8 mph 27.8 mph 74 % 0.0 in 0.0 W/m2 CLR
03:42 13.3 °F 8.8 °F 1021.2 in South 18.5 mph 18.5 mph 74 % 0.0 in 0.0 W/m2 CLR
03:47 13.3 °F 8.6 °F 1021.2 in SSW 18.5 mph 18.5 mph 73 % 0.0 in 0.0 W/m2 CLR
03:52 13.3 °F 8.6 °F 1021.2 in SSW 14.5 mph 14.5 mph 73 % 0.0 in 0.0 W/m2 CLR
03:57 13.9 °F 9.1 °F 1020.9 in SSW 22.2 mph 22.2 mph 73 % 0.0 in 0.0 W/m2 CLR
04:02 13.9 °F 9.1 °F 1020.9 in SSW 12.9 mph 12.9 mph 73 % 0.0 in 0.0 W/m2 CLR
04:07 13.9 °F 9.3 °F 1020.9 in South 18.5 mph 18.5 mph 74 % 0.0 in 0.0 W/m2 CLR
04:13 13.9 °F 9.3 °F 1020.9 in SSW 12.9 mph 12.9 mph 74 % 0.0 in 0.0 W/m2 CLR
04:18 13.9 °F 9.3 °F 1020.9 in SSW 18.5 mph 18.5 mph 74 % 0.0 in 0.0 W/m2 CLR
04:20 13.9 °F 9.3 °F 1020.9 in SSW 20.4 mph 20.4 mph 74 % 0.0 in 0.0 W/m2 CLR
04:22 13.9 °F 9.3 °F 1020.9 in South 22.2 mph 22.2 mph 74 % 0.0 in 0.0 W/m2 CLR
04:23 13.9 °F 9.3 °F 1020.9 in South 22.2 mph 22.2 mph 74 % 0.0 in 0.0 W/m2 CLR
04:25 13.9 °F 9.3 °F 1020.9 in South 31.5 mph 31.5 mph 74 % 0.0 in 0.0 W/m2 CLR
04:30 13.9 °F 9.1 °F 1020.9 in SSW 18.5 mph 18.5 mph 73 % 0.0 in 0.0 W/m2 CLR
04:35 13.9 °F 9.3 °F 1020.9 in SSW 16.7 mph 16.7 mph 74 % 0.0 in 0.0 W/m2 CLR
04:40 13.9 °F 9.3 °F 1020.9 in South 18.5 mph 18.5 mph 74 % 0.0 in 0.0 W/m2 CLR
04:45 13.9 °F 9.3 °F 1020.9 in South 24.1 mph 24.1 mph 74 % 0.0 in 0.0 W/m2 CLR
04:46 13.9 °F 9.3 °F 1020.9 in SW 18.5 mph 18.5 mph 74 % 0.0 in 0.0 W/m2 CLR
04:51 13.9 °F 9.3 °F 1020.9 in SSW 20.4 mph 20.4 mph 74 % 0.0 in 0.0 W/m2 CLR
04:56 13.9 °F 9.3 °F 1020.9 in SSW 18.5 mph 18.5 mph 74 % 0.0 in 0.0 W/m2 CLR
05:01 13.9 °F 9.3 °F 1020.9 in SSW 22.2 mph 22.2 mph 74 % 0.0 in 0.0 W/m2 CLR
05:06 13.9 °F 9.3 °F 1020.9 in SSW 27.8 mph 27.8 mph 74 % 0.0 in 0.0 W/m2 CLR
05:11 13.9 °F 9.3 °F 1020.9 in South 20.9 mph 20.9 mph 74 % 0.0 in 0.0 W/m2 CLR
05:16 13.9 °F 9.3 °F 1020.5 in SSE 20.4 mph 20.4 mph 74 % 0.0 in 0.0 W/m2 CLR
05:21 13.9 °F 9.3 °F 1020.5 in SSW 22.2 mph 22.2 mph 74 % 0.0 in 0.0 W/m2 CLR
05:26 13.9 °F 9.3 °F 1020.5 in SSW 25.9 mph 25.9 mph 74 % 0.0 in 0.0 W/m2 CLR
05:31 13.9 °F 9.6 °F 1020.5 in SW 18.5 mph 18.5 mph 75 % 0.0 in 0.0 W/m2 CLR
05:36 13.9 °F 9.6 °F 1020.9 in SSW 31.5 mph 31.5 mph 75 % 0.0 in 0.0 W/m2 CLR
05:41 13.9 °F 9.3 °F 1020.5 in South 24.1 mph 24.1 mph 74 % 0.0 in 0.0 W/m2 CLR
05:46 13.9 °F 9.6 °F 1020.9 in South 20.4 mph 20.4 mph 75 % 0.0 in 0.0 W/m2 CLR
05:51 13.9 °F 9.3 °F 1020.5 in SSW 18.5 mph 18.5 mph 74 % 0.0 in 0.0 W/m2 CLR
05:56 13.3 °F 9.0 °F 1020.5 in South 20.4 mph 20.4 mph 75 % 0.0 in 0.0 W/m2 CLR
06:01 13.3 °F 8.8 °F 1020.5 in SSW 22.2 mph 22.2 mph 74 % 0.0 in 0.0 W/m2 CLR
06:06 13.3 °F 8.8 °F 1020.5 in SSW 18.5 mph 18.5 mph 74 % 0.0 in 0.0 W/m2 CLR
06:11 13.3 °F 8.8 °F 1020.5 in South 32.2 mph 32.2 mph 74 % 0.0 in 0.0 W/m2 CLR
06:12 13.3 °F 8.8 °F 1020.5 in South 24.1 mph 24.1 mph 74 % 0.0 in 0.0 W/m2 CLR
06:17 13.3 °F 8.8 °F 1020.5 in South 24.1 mph 24.1 mph 74 % 0.0 in 0.0 W/m2 CLR
06:22 13.3 °F 8.8 °F 1020.5 in South 25.9 mph 25.9 mph 74 % 0.0 in 0.0 W/m2 CLR
06:27 13.3 °F 8.8 °F 1020.5 in SSW 22.2 mph 22.2 mph 74 % 0.0 in 0.0 W/m2 CLR
06:32 13.3 °F 8.8 °F 1020.5 in SSW 18.5 mph 18.5 mph 74 % 0.0 in 0.0 W/m2 CLR
06:37 13.3 °F 8.8 °F 1020.5 in SSW 18.5 mph 18.5 mph 74 % 0.0 in 0.0 W/m2 CLR
06:42 13.3 °F 8.8 °F 1020.5 in South 16.7 mph 16.7 mph 74 % 0.0 in 0.0 W/m2 CLR
06:47 13.3 °F 8.8 °F 1020.5 in SSW 18.5 mph 18.5 mph 74 % 0.0 in 0.0 W/m2 CLR
06:52 13.3 °F 8.8 °F 1020.5 in SSW 18.5 mph 18.5 mph 74 % 0.0 in 0.0 W/m2 CLR
06:57 13.3 °F 8.8 °F 1020.5 in SSW 20.4 mph 20.4 mph 74 % 0.0 in 0.0 W/m2 CLR
07:02 13.3 °F 8.8 °F 1020.5 in South 16.7 mph 16.7 mph 74 % 0.0 in 0.0 W/m2 CLR
07:07 13.3 °F 8.8 °F 1020.5 in South 18.5 mph 18.5 mph 74 % 0.0 in 0.0 W/m2 CLR
07:12 13.3 °F 8.6 °F 1020.5 in SSW 22.2 mph 22.2 mph 73 % 0.0 in 0.0 W/m2 CLR
07:17 13.3 °F 8.6 °F 1020.5 in SSW 16.7 mph 16.7 mph 73 % 0.0 in 0.0 W/m2 CLR
07:22 13.3 °F 8.6 °F 1020.5 in South 22.2 mph 22.2 mph 73 % 0.0 in 0.0 W/m2 OVC
07:27 13.3 °F 8.6 °F 1020.5 in SSW 20.4 mph 20.4 mph 73 % 0.0 in 0.0 W/m2 OVC
07:32 13.3 °F 8.6 °F 1020.5 in South 20.4 mph 20.4 mph 73 % 0.0 in 5.0 W/m2 OVC
07:37 13.3 °F 8.6 °F 1020.5 in SSW 18.5 mph 18.5 mph 73 % 0.0 in 7.0 W/m2 OVC
07:42 13.3 °F 8.6 °F 1020.5 in South 18.5 mph 18.5 mph 73 % 0.0 in 9.0 W/m2 OVC
07:47 13.3 °F 8.6 °F 1020.5 in SSW 20.4 mph 20.4 mph 73 % 0.0 in 16.0 W/m2 OVC
07:52 13.3 °F 8.6 °F 1020.5 in South 16.7 mph 16.7 mph 73 % 0.0 in 16.0 W/m2 OVC
07:57 13.3 °F 8.6 °F 1020.5 in SSW 18.5 mph 18.5 mph 73 % 0.0 in 18.0 W/m2 OVC
08:02 13.3 °F 8.6 °F 1020.5 in South 24.1 mph 24.1 mph 73 % 0.0 in 23.0 W/m2 OVC
08:07 13.3 °F 8.6 °F 1020.5 in SSW 18.5 mph 18.5 mph 73 % 0.0 in 23.0 W/m2 OVC
08:12 12.8 °F 8.1 °F 1020.5 in South 18.5 mph 18.5 mph 73 % 0.0 in 28.0 W/m2 OVC
08:17 13.3 °F 8.6 °F 1020.5 in South 20.4 mph 20.4 mph 73 % 0.0 in 56.0 W/m2 OVC
08:27 13.3 °F 8.6 °F 1020.9 in SSW 24.1 mph 24.1 mph 73 % 0.0 in 47.0 W/m2 OVC
08:32 13.3 °F 8.6 °F 1020.9 in SW 24.1 mph 24.1 mph 73 % 0.0 in 60.0 W/m2 BKN
08:37 13.9 °F 9.1 °F 1020.5 in South 16.7 mph 16.7 mph 73 % 0.0 in 63.0 W/m2 SCT
08:42 13.9 °F 9.1 °F 1020.5 in South 18.5 mph 18.5 mph 73 % 0.0 in 53.0 W/m2 SCT
08:47 13.9 °F 9.1 °F 1020.9 in SW 27.4 mph 27.4 mph 73 % 0.0 in 62.0 W/m2 SCT
08:52 13.9 °F 8.9 °F 1020.9 in South 24.1 mph 24.1 mph 72 % 0.0 in 74.0 W/m2 SCT
08:57 13.9 °F 8.9 °F 1020.9 in South 20.4 mph 20.4 mph 72 % 0.0 in 90.0 W/m2 FEW
09:02 13.9 °F 8.9 °F 1020.9 in SSW 27.4 mph 27.4 mph 72 % 0.0 in 91.0 W/m2 CLR
09:07 14.4 °F 9.4 °F 1020.9 in SW 25.9 mph 25.9 mph 72 % 0.0 in 105.0 W/m2 CLR
09:12 14.4 °F 9.2 °F 1020.9 in South 24.1 mph 24.1 mph 71 % 0.0 in 120.0 W/m2 CLR
09:17 14.4 °F 9.2 °F 1020.9 in SSW 17.7 mph 17.7 mph 71 % 0.0 in 98.0 W/m2 CLR
09:22 14.4 °F 9.2 °F 1020.9 in SSW 27.8 mph 27.8 mph 71 % 0.0 in 116.0 W/m2 CLR
09:27 14.4 °F 9.2 °F 1020.9 in SSW 24.1 mph 24.1 mph 71 % 0.0 in 139.0 W/m2 CLR
09:32 14.4 °F 9.2 °F 1020.9 in SSW 22.2 mph 22.2 mph 71 % 0.0 in 128.0 W/m2 CLR
09:37 14.4 °F 9.2 °F 1020.9 in SSW 16.7 mph 16.7 mph 71 % 0.0 in 148.0 W/m2 CLR
09:42 14.4 °F 9.2 °F 1020.9 in SW 19.3 mph 19.3 mph 71 % 0.0 in 146.0 W/m2 CLR
09:47 15.0 °F 9.6 °F 1020.9 in SW 25.9 mph 25.9 mph 70 % 0.0 in 139.0 W/m2 CLR
09:52 15.0 °F 9.6 °F 1020.9 in South 31.5 mph 31.5 mph 70 % 0.0 in 160.0 W/m2 CLR
09:57 15.0 °F 9.6 °F 1020.5 in WSW 24.1 mph 24.1 mph 70 % 0.0 in 192.0 W/m2 CLR
10:02 15.0 °F 9.6 °F 1020.9 in SSW 29.6 mph 29.6 mph 70 % 0.0 in 174.0 W/m2 CLR
10:07 15.0 °F 9.6 °F 1020.9 in SW 31.5 mph 31.5 mph 70 % 0.0 in 167.0 W/m2 CLR
10:12 15.0 °F 9.6 °F 1020.9 in SSW 31.5 mph 31.5 mph 70 % 0.0 in 185.0 W/m2 CLR
10:17 15.0 °F 9.3 °F 1020.9 in SW 25.9 mph 25.9 mph 69 % 0.0 in 179.0 W/m2 CLR
10:22 15.6 °F 10.1 °F 1020.9 in SW 29.6 mph 29.6 mph 70 % 0.0 in 181.0 W/m2 CLR
10:27 15.6 °F 9.9 °F 1020.9 in SW 25.9 mph 25.9 mph 69 % 0.0 in 185.0 W/m2 CLR
10:32 15.6 °F 9.9 °F 1020.5 in SSW 22.2 mph 22.2 mph 69 % 0.0 in 232.0 W/m2 CLR
10:37 15.6 °F 9.9 °F 1020.5 in SW 22.5 mph 22.5 mph 69 % 0.0 in 176.0 W/m2 CLR
10:42 15.6 °F 9.7 °F 1020.5 in SSW 31.5 mph 31.5 mph 68 % 0.0 in 206.0 W/m2 CLR
10:47 16.1 °F 10.2 °F 1020.5 in SW 29.6 mph 29.6 mph 68 % 0.0 in 193.0 W/m2 CLR
10:52 16.1 °F 10.0 °F 1020.5 in SW 25.9 mph 25.9 mph 67 % 0.0 in 202.0 W/m2 CLR
10:57 16.1 °F 10.0 °F 1020.5 in SW 31.5 mph 31.5 mph 67 % 0.0 in 135.0 W/m2 CLR
11:02 15.6 °F 9.4 °F 1020.5 in SSW 29.6 mph 29.6 mph 67 % 0.0 in 151.0 W/m2 CLR
11:07 15.6 °F 9.4 °F 1020.5 in SW 24.1 mph 24.1 mph 67 % 0.0 in 151.0 W/m2 CLR
11:12 16.1 °F 9.5 °F 1020.5 in SSW 25.9 mph 25.9 mph 65 % 0.0 in 197.0 W/m2 CLR
11:17 16.1 °F 9.5 °F 1020.5 in SSW 25.9 mph 25.9 mph 65 % 0.0 in 155.0 W/m2 CLR
11:22 16.1 °F 9.5 °F 1020.2 in SSW 22.2 mph 22.2 mph 65 % 0.0 in 128.0 W/m2 CLR
11:27 16.1 °F 9.5 °F 1020.2 in SSW 27.8 mph 27.8 mph 65 % 0.0 in 118.0 W/m2 CLR
11:32 16.1 °F 9.5 °F 1020.2 in SSW 20.4 mph 20.4 mph 65 % 0.0 in 167.0 W/m2 CLR
11:37 16.1 °F 9.3 °F 1020.2 in SSW 18.5 mph 18.5 mph 64 % 0.0 in 169.0 W/m2 CLR
11:42 16.1 °F 9.3 °F 1020.2 in SSW 24.1 mph 24.1 mph 64 % 0.0 in 330.0 W/m2 CLR
11:47 17.2 °F 10.1 °F 1020.2 in SW 25.7 mph 25.7 mph 63 % 0.0 in 183.0 W/m2 CLR
11:52 17.2 °F 10.1 °F 1019.9 in South 18.5 mph 18.5 mph 63 % 0.0 in 550.0 W/m2 CLR
11:57 17.8 °F 10.4 °F 1019.9 in SW 22.5 mph 22.5 mph 62 % 0.0 in 267.0 W/m2 CLR
12:02 17.8 °F 10.2 °F 1019.9 in SW 25.9 mph 25.9 mph 61 % 0.0 in 269.0 W/m2 CLR
12:08 17.8 °F 10.2 °F 1019.9 in SSW 25.7 mph 25.7 mph 61 % 0.0 in 301.0 W/m2 CLR
12:13 17.2 °F 9.4 °F 1019.9 in SSW 24.1 mph 24.1 mph 60 % 0.0 in 288.0 W/m2 CLR
12:18 17.8 °F 9.9 °F 1019.5 in SSW 27.8 mph 27.8 mph 60 % 0.0 in 371.0 W/m2 CLR
12:23 18.3 °F 10.2 °F 1019.5 in SSW 29.6 mph 29.6 mph 59 % 0.0 in 316.0 W/m2 CLR
12:28 18.9 °F 10.7 °F 1019.5 in SSW 22.2 mph 22.2 mph 59 % 0.0 in 793.0 W/m2 CLR
12:33 19.4 °F 10.7 °F 1019.5 in WSW 20.9 mph 20.9 mph 57 % 0.0 in 243.0 W/m2 CLR
12:38 18.9 °F 10.4 °F 1019.2 in SW 24.1 mph 24.1 mph 58 % 0.0 in 253.0 W/m2 CLR
12:43 18.3 °F 10.2 °F 1019.2 in SSW 29.6 mph 29.6 mph 59 % 0.0 in 174.0 W/m2 CLR
12:48 17.8 °F 9.7 °F 1019.2 in SSW 27.8 mph 27.8 mph 59 % 0.0 in 612.0 W/m2 CLR
12:53 18.9 °F 10.4 °F 1019.2 in South 20.4 mph 20.4 mph 58 % 0.0 in 613.0 W/m2 CLR
12:58 18.9 °F 9.9 °F 1019.2 in South 29.6 mph 29.6 mph 56 % 0.0 in 647.0 W/m2 CLR
13:03 18.9 °F 9.9 °F 1018.8 in South 33.3 mph 33.3 mph 56 % 0.0 in 584.0 W/m2 CLR
13:08 18.9 °F 10.2 °F 1019.2 in SSW 25.7 mph 25.7 mph 57 % 0.0 in 596.0 W/m2 CLR
13:13 18.9 °F 10.2 °F 1018.8 in SSW 25.9 mph 25.9 mph 57 % 0.0 in 455.0 W/m2 CLR
13:18 19.4 °F 10.2 °F 1018.8 in SSW 27.8 mph 27.8 mph 55 % 0.0 in 116.0 W/m2 CLR
13:23 19.4 °F 10.4 °F 1018.8 in SSW 27.8 mph 27.8 mph 56 % 0.0 in 563.0 W/m2 CLR
13:28 19.4 °F 10.2 °F 1018.8 in South 27.4 mph 27.4 mph 55 % 0.0 in 563.0 W/m2 CLR
13:33 19.4 °F 10.2 °F 1018.5 in SSW 22.2 mph 22.2 mph 55 % 0.0 in 575.0 W/m2 CLR
13:38 20.0 °F 10.7 °F 1018.5 in WSW 24.1 mph 24.1 mph 55 % 0.0 in 612.0 W/m2 CLR
13:43 20.0 °F 10.4 °F 1018.5 in SW 22.2 mph 22.2 mph 54 % 0.0 in 633.0 W/m2 CLR
13:48 20.6 °F 10.7 °F 1018.5 in West 31.5 mph 31.5 mph 53 % 0.0 in 587.0 W/m2 CLR
13:53 20.0 °F 10.4 °F 1018.5 in SW 14.8 mph 14.8 mph 54 % 0.0 in 91.0 W/m2 CLR
13:58 19.4 °F 9.6 °F 1018.5 in SW 20.4 mph 20.4 mph 53 % 0.0 in 555.0 W/m2 CLR
14:03 19.4 °F 9.6 °F 1018.5 in SW 20.4 mph 20.4 mph 53 % 0.0 in 536.0 W/m2 CLR
14:08 20.0 °F 9.8 °F 1018.5 in SSW 29.6 mph 29.6 mph 52 % 0.0 in 554.0 W/m2 CLR
14:13 19.4 °F 9.3 °F 1018.5 in SSW 18.5 mph 18.5 mph 52 % 0.0 in 517.0 W/m2 CLR
14:18 20.0 °F 9.8 °F 1018.2 in South 27.8 mph 27.8 mph 52 % 0.0 in 529.0 W/m2 CLR
14:23 20.0 °F 9.8 °F 1018.2 in WSW 24.1 mph 24.1 mph 52 % 0.0 in 571.0 W/m2 CLR
14:28 20.0 °F 9.8 °F 1018.2 in West 25.7 mph 25.7 mph 52 % 0.0 in 510.0 W/m2 CLR
14:33 20.0 °F 9.8 °F 1018.2 in SW 27.8 mph 27.8 mph 52 % 0.0 in 489.0 W/m2 CLR
14:38 20.0 °F 9.8 °F 1018.2 in WSW 24.1 mph 24.1 mph 52 % 0.0 in 492.0 W/m2 CLR
14:43 20.0 °F 9.8 °F 1018.2 in SW 22.5 mph 22.5 mph 52 % 0.0 in 476.0 W/m2 CLR
14:48 20.0 °F 9.6 °F 1018.2 in SW 24.1 mph 24.1 mph 51 % 0.0 in 473.0 W/m2 CLR
14:53 20.6 °F 10.1 °F 1018.2 in SW 27.8 mph 27.8 mph 51 % 0.0 in 469.0 W/m2 CLR
14:58 20.6 °F 10.1 °F 1018.2 in SSW 27.8 mph 27.8 mph 51 % 0.0 in 439.0 W/m2 CLR
15:03 20.0 °F 9.6 °F 1018.2 in SW 24.1 mph 24.1 mph 51 % 0.0 in 427.0 W/m2 CLR
15:08 20.0 °F 9.6 °F 1018.2 in SSW 24.1 mph 24.1 mph 51 % 0.0 in 434.0 W/m2 CLR
15:13 20.0 °F 9.6 °F 1018.2 in SSW 22.2 mph 22.2 mph 51 % 0.0 in 417.0 W/m2 CLR
15:16 20.0 °F 9.6 °F 1018.2 in SW 24.1 mph 24.1 mph 51 % 0.0 in 417.0 W/m2 CLR
15:21 20.0 °F 9.6 °F 1018.2 in South 22.2 mph 22.2 mph 51 % 0.0 in 403.0 W/m2 CLR
15:26 20.0 °F 9.6 °F 1017.8 in SSW 18.5 mph 18.5 mph 51 % 0.0 in 373.0 W/m2 CLR
15:31 20.0 °F 9.3 °F 1017.8 in SW 22.2 mph 22.2 mph 50 % 0.0 in 367.0 W/m2 CLR
15:36 20.6 °F 9.8 °F 1017.8 in SSW 25.9 mph 25.9 mph 50 % 0.0 in 357.0 W/m2 CLR
15:41 20.0 °F 9.3 °F 1018.2 in SSW 20.4 mph 20.4 mph 50 % 0.0 in 348.0 W/m2 CLR
15:46 20.0 °F 9.3 °F 1018.2 in SSW 24.1 mph 24.1 mph 50 % 0.0 in 325.0 W/m2 CLR
15:51 20.0 °F 9.3 °F 1017.8 in SSW 18.5 mph 18.5 mph 50 % 0.0 in 309.0 W/m2 CLR
15:56 20.0 °F 8.9 °F 1018.2 in SSW 24.1 mph 24.1 mph 49 % 0.0 in 304.0 W/m2 CLR
16:01 20.0 °F 8.9 °F 1018.2 in SSW 20.4 mph 20.4 mph 49 % 0.0 in 297.0 W/m2 CLR
16:03 20.0 °F 8.9 °F 1018.2 in SSW 18.5 mph 18.5 mph 49 % 0.0 in 292.0 W/m2 CLR
16:08 20.0 °F 8.9 °F 1018.2 in SW 25.9 mph 25.9 mph 49 % 0.0 in 267.0 W/m2 CLR
16:13 20.0 °F 8.9 °F 1018.2 in SSW 27.8 mph 27.8 mph 49 % 0.0 in 229.0 W/m2 CLR
16:18 19.4 °F 8.4 °F 1018.2 in SW 22.5 mph 22.5 mph 49 % 0.0 in 220.0 W/m2 CLR
16:23 19.4 °F 8.4 °F 1018.2 in SSW 18.5 mph 18.5 mph 49 % 0.0 in 220.0 W/m2 CLR
16:28 19.4 °F 8.2 °F 1018.2 in SW 18.5 mph 18.5 mph 48 % 0.0 in 209.0 W/m2 CLR
16:33 19.4 °F 8.4 °F 1018.2 in SSW 22.5 mph 22.5 mph 49 % 0.0 in 183.0 W/m2 CLR
16:38 19.4 °F 8.4 °F 1018.5 in SW 20.4 mph 20.4 mph 49 % 0.0 in 172.0 W/m2 CLR
16:43 19.4 °F 8.4 °F 1018.2 in West 18.5 mph 18.5 mph 49 % 0.0 in 151.0 W/m2 CLR
16:58 18.9 °F 8.2 °F 1018.5 in SW 24.1 mph 24.1 mph 50 % 0.0 in 95.0 W/m2 CLR
17:03 18.9 °F 8.2 °F 1018.5 in SW 22.2 mph 22.2 mph 50 % 0.0 in 84.0 W/m2 CLR
17:08 18.3 °F 8.0 °F 1018.5 in SSW 22.2 mph 22.2 mph 51 % 0.0 in 65.0 W/m2 SCT
17:13 18.3 °F 8.3 °F 1018.5 in SSW 20.4 mph 20.4 mph 52 % 0.0 in 58.0 W/m2 SCT
17:18 18.3 °F 8.0 °F 1018.5 in SSW 18.5 mph 18.5 mph 51 % 0.0 in 51.0 W/m2 SCT
17:23 18.3 °F 8.0 °F 1018.5 in SSW 18.5 mph 18.5 mph 51 % 0.0 in 42.0 W/m2 BKN
17:28 17.8 °F 7.5 °F 1018.5 in SW 25.9 mph 25.9 mph 51 % 0.0 in 32.0 W/m2 BKN
17:33 17.8 °F 7.8 °F 1018.8 in WSW 22.5 mph 22.5 mph 52 % 0.0 in 25.0 W/m2 BKN
17:38 17.8 °F 7.8 °F 1018.8 in SSW 24.1 mph 24.1 mph 52 % 0.0 in 18.0 W/m2 BKN
17:43 17.8 °F 7.8 °F 1018.8 in SW 18.5 mph 18.5 mph 52 % 0.0 in 16.0 W/m2 BKN
17:48 17.2 °F 7.3 °F 1019.2 in SSW 14.8 mph 14.8 mph 52 % 0.0 in 12.0 W/m2 BKN
17:53 17.2 °F 7.3 °F 1019.2 in SW 11.3 mph 11.3 mph 52 % 0.0 in 7.0 W/m2 BKN
17:58 16.7 °F 6.8 °F 1019.2 in SSW 16.7 mph 16.7 mph 52 % 0.0 in 5.0 W/m2 OVC
18:03 16.7 °F 7.1 °F 1019.2 in SSW 9.3 mph 9.3 mph 53 % 0.0 in 0.0 W/m2 CLR
18:08 16.1 °F 6.5 °F 1019.2 in SW 16.7 mph 16.7 mph 53 % 0.0 in 0.0 W/m2 CLR
18:13 16.1 °F 6.5 °F 1019.5 in SSW 11.3 mph 11.3 mph 53 % 0.0 in 0.0 W/m2 CLR
18:18 15.6 °F 6.3 °F 1019.5 in Calm     54 % 0.0 in 0.0 W/m2 CLR
18:23 15.6 °F 6.6 °F 1019.5 in Calm     55 % 0.0 in 0.0 W/m2 CLR
18:28 15.0 °F 6.0 °F 1019.5 in SW 14.8 mph 14.8 mph 55 % 0.0 in 0.0 W/m2 CLR
18:33 15.0 °F 6.0 °F 1019.9 in SW 3.7 mph 3.7 mph 55 % 0.0 in 0.0 W/m2 CLR
18:38 15.0 °F 6.3 °F 1019.9 in SSW 16.7 mph 16.7 mph 56 % 0.0 in 0.0 W/m2 CLR
18:43 15.6 °F 6.8 °F 1019.9 in SSW 14.8 mph 14.8 mph 56 % 0.0 in 0.0 W/m2 CLR
18:48 15.6 °F 6.8 °F 1019.9 in SSW 13.0 mph 13.0 mph 56 % 0.0 in 0.0 W/m2 CLR
18:53 15.0 °F 6.3 °F 1020.2 in WSW 14.8 mph 14.8 mph 56 % 0.0 in 0.0 W/m2 CLR
18:58 15.0 °F 6.3 °F 1020.2 in SW 13.0 mph 13.0 mph 56 % 0.0 in 0.0 W/m2 CLR
19:03 15.0 °F 6.6 °F 1020.2 in SSW 14.8 mph 14.8 mph 57 % 0.0 in 0.0 W/m2 CLR
19:08 14.4 °F 6.0 °F 1020.5 in SW 17.7 mph 17.7 mph 57 % 0.0 in 0.0 W/m2 CLR
19:13 14.4 °F 6.0 °F 1020.5 in SW 24.1 mph 24.1 mph 57 % 0.0 in 0.0 W/m2 CLR
19:18 15.0 °F 6.6 °F 1020.9 in SW 18.5 mph 18.5 mph 57 % 0.0 in 0.0 W/m2 CLR
19:23 15.0 °F 6.8 °F 1020.9 in SW 22.2 mph 22.2 mph 58 % 0.0 in 0.0 W/m2 CLR
19:28 15.0 °F 6.8 °F 1020.9 in SSW 20.4 mph 20.4 mph 58 % 0.0 in 0.0 W/m2 CLR
19:33 15.0 °F 7.1 °F 1021.2 in SSW 18.5 mph 18.5 mph 59 % 0.0 in 0.0 W/m2 CLR
19:38 15.0 °F 7.1 °F 1021.2 in SW 16.7 mph 16.7 mph 59 % 0.0 in 0.0 W/m2 CLR
19:43 14.4 °F 6.8 °F 1021.2 in SW 20.4 mph 20.4 mph 60 % 0.0 in 0.0 W/m2 CLR
19:48 14.4 °F 6.8 °F 1021.2 in SSW 31.5 mph 31.5 mph 60 % 0.0 in 0.0 W/m2 CLR
19:53 14.4 °F 6.8 °F 1021.2 in SSW 18.5 mph 18.5 mph 60 % 0.0 in 0.0 W/m2 CLR
20:08 14.4 °F 7.0 °F 1021.6 in SSW 18.5 mph 18.5 mph 61 % 0.0 in 0.0 W/m2 CLR
20:13 13.9 °F 6.5 °F 1021.6 in SSW 25.7 mph 25.7 mph 61 % 0.0 in 0.0 W/m2 CLR
20:18 13.9 °F 6.5 °F 1021.6 in SSW 20.4 mph 20.4 mph 61 % 0.0 in 0.0 W/m2 CLR
20:23 13.9 °F 6.5 °F 1021.6 in SSW 18.5 mph 18.5 mph 61 % 0.0 in 0.0 W/m2 CLR
20:28 13.9 °F 6.5 °F 1021.9 in SSW 20.4 mph 20.4 mph 61 % 0.0 in 0.0 W/m2 CLR
20:38 13.9 °F 6.7 °F 1021.9 in SW 20.4 mph 20.4 mph 62 % 0.0 in 0.0 W/m2 CLR
20:43 13.9 °F 6.7 °F 1021.9 in SW 16.1 mph 16.1 mph 62 % 0.0 in 0.0 W/m2 CLR
20:48 13.3 °F 6.2 °F 1022.2 in SSE 18.5 mph 18.5 mph 62 % 0.0 in 0.0 W/m2 CLR
20:58 13.3 °F 6.4 °F 1022.2 in SSW 16.7 mph 16.7 mph 63 % 0.0 in 0.0 W/m2 CLR
21:03 13.3 °F 6.4 °F 1022.2 in SSW 18.5 mph 18.5 mph 63 % 0.0 in 0.0 W/m2 CLR
21:08 13.3 °F 6.4 °F 1022.6 in SSW 16.7 mph 16.7 mph 63 % 0.0 in 0.0 W/m2 CLR
21:13 13.3 °F 6.7 °F 1022.6 in SSW 16.7 mph 16.7 mph 64 % 0.0 in 0.0 W/m2 CLR
21:18 12.8 °F 6.1 °F 1022.6 in SSW 18.5 mph 18.5 mph 64 % 0.0 in 0.0 W/m2 CLR
21:23 12.8 °F 6.1 °F 1022.6 in SSW 14.8 mph 14.8 mph 64 % 0.0 in 0.0 W/m2 CLR
21:28 12.8 °F 6.1 °F 1022.6 in South 18.5 mph 18.5 mph 64 % 0.0 in 0.0 W/m2 CLR
21:33 12.8 °F 6.3 °F 1022.9 in South 17.7 mph 17.7 mph 65 % 0.0 in 0.0 W/m2 CLR
21:38 12.8 °F 6.3 °F 1022.9 in SSW 16.1 mph 16.1 mph 65 % 0.0 in 0.0 W/m2 CLR
21:43 12.8 °F 6.3 °F 1022.9 in South 14.8 mph 14.8 mph 65 % 0.0 in 0.0 W/m2 CLR
21:48 12.8 °F 6.3 °F 1023.2 in SSW 18.5 mph 18.5 mph 65 % 0.0 in 0.0 W/m2 CLR
21:53 12.2 °F 5.8 °F 1023.2 in South 11.3 mph 11.3 mph 65 % 0.0 in 0.0 W/m2 CLR
21:59 12.2 °F 6.1 °F 1023.2 in South 8.0 mph 8.0 mph 66 % 0.0 in 0.0 W/m2 CLR
22:04 12.2 °F 6.1 °F 1023.2 in South 7.4 mph 7.4 mph 66 % 0.0 in 0.0 W/m2 CLR
22:09 11.7 °F 5.5 °F 1023.6 in SSW 13.0 mph 13.0 mph 66 % 0.0 in 0.0 W/m2 CLR
22:14 11.7 °F 5.5 °F 1023.6 in SSW 9.3 mph 9.3 mph 66 % 0.0 in 0.0 W/m2 CLR
22:19 11.1 °F 5.0 °F 1023.6 in SSW 17.7 mph 17.7 mph 66 % 0.0 in 0.0 W/m2 CLR
22:24 11.1 °F 5.0 °F 1023.6 in SSW 13.0 mph 13.0 mph 66 % 0.0 in 0.0 W/m2 CLR
22:29 11.1 °F 5.2 °F 1023.9 in SSE 19.3 mph 19.3 mph 67 % 0.0 in 0.0 W/m2 CLR
22:34 11.1 °F 5.2 °F 1023.6 in SSW 18.5 mph 18.5 mph 67 % 0.0 in 0.0 W/m2 CLR
22:39 11.1 °F 5.0 °F 1023.9 in South 14.8 mph 14.8 mph 66 % 0.0 in 0.0 W/m2 CLR
22:44 11.1 °F 5.2 °F 1023.9 in SSW 16.7 mph 16.7 mph 67 % 0.0 in 0.0 W/m2 CLR
22:49 11.1 °F 5.2 °F 1023.9 in SW 20.4 mph 20.4 mph 67 % 0.0 in 0.0 W/m2 CLR
22:54 11.1 °F 5.2 °F 1023.9 in SSW 5.6 mph 5.6 mph 67 % 0.0 in 0.0 W/m2 CLR
23:04 10.6 °F 4.7 °F 1023.9 in South 14.8 mph 14.8 mph 67 % 0.0 in 0.0 W/m2 CLR
23:09 10.0 °F 4.2 °F 1023.9 in South 14.8 mph 14.8 mph 67 % 0.0 in 0.0 W/m2 CLR
23:14 10.0 °F 4.2 °F 1023.9 in South 13.0 mph 13.0 mph 67 % 0.0 in 0.0 W/m2 CLR
23:19 10.0 °F 4.2 °F 1023.9 in SSE 14.8 mph 14.8 mph 67 % 0.0 in 0.0 W/m2 CLR
23:24 9.4 °F 3.6 °F 1023.9 in SSW 24.1 mph 24.1 mph 67 % 0.0 in 0.0 W/m2 CLR
23:29 9.4 °F 3.6 °F 1023.9 in SSW 13.0 mph 13.0 mph 67 % 0.0 in 0.0 W/m2 CLR
23:34 9.4 °F 3.6 °F 1023.9 in SSW 14.8 mph 14.8 mph 67 % 0.0 in 0.0 W/m2 CLR
23:39 9.4 °F 3.6 °F 1023.9 in SSW 16.7 mph 16.7 mph 67 % 0.0 in 0.0 W/m2 CLR
23:44 9.4 °F 3.6 °F 1023.9 in SSW 13.0 mph 13.0 mph 67 % 0.0 in 0.0 W/m2 CLR
23:49 9.4 °F 3.6 °F 1024.3 in SSW 14.8 mph 14.8 mph 67 % 0.0 in 0.0 W/m2 CLR
23:54 9.4 °F 3.6 °F 1024.3 in SSW 13.0 mph 13.0 mph 67 % 0.0 in 0.0 W/m2 CLR
23:59 10.0 °F 4.2 °F 1024.3 in SSW 9.7 mph 9.7 mph 67 % 0.0 in 0.0 W/m2 CLR
Lo Temps de Massalio
Compliments of Weather Underground - 1.25 mb